Terminal Aerodrome Forecast
Issued by NWS

Home | Current Version | Previous Version | Text Only | Print | Product List | Glossary On
Versions: 1 2 3 4 5 6 7 8 9 10 11 12 13 14 15 16 17 18 19
000
FTUS42 KTAE 250500
TAFDHN
TAF
KDHN 250520Z 2506/2606 22005KT P6SM FEW100
     FM250900 25003KT 4SM BR FEW250
     FM251300 26006KT P6SM SCT050 SCT250
     FM251800 26008KT P6SM VCTS BKN050CB
     FM260000 22006KT P6SM BKN250=

USA.gov is the U.S. government's official web portal to all federal, state and local government web resources and services.